Time;durP1;ratioP1;P1;durP2;ratioP2;P2;SDS_P1;SDS_P2;PMS_P1;PMS_P2;Temp;Humidity;BMP_temperature;BMP_pressure;BME280_temperature;BME280_humidity;BME280_pressure;Samples;Min_cycle;Max_cycle;Signal;HPM_P1;HPM_P2
2022/10/18 00:00:35;;;;;;;5.57;4.20;;;;;;;9.61;77.75;95976.41;5031337;28;20290;-61
2022/10/18 00:03:00;;;;;;;9.77;4.80;;;;;;;9.57;78.54;95952.09;5030742;28;20192;-59
2022/10/18 00:05:26;;;;;;;7.80;4.77;;;;;;;9.43;79.97;95924.19;5030897;28;20206;-61
2022/10/18 00:07:51;;;;;;;7.13;4.73;;;;;;;9.53;80.67;95929.53;5031024;28;20660;-60
2022/10/18 00:10:18;;;;;;;7.70;4.60;;;;;;;9.55;80.98;95927.72;5030908;28;20206;-60
2022/10/18 00:12:43;;;;;;;7.10;4.80;;;;;;;9.52;80.16;95949.03;5013175;28;20259;-60
2022/10/18 00:15:11;;;;;;;8.53;5.37;;;;;;;9.78;78.76;95975.38;5030860;28;20213;-60
2022/10/18 00:17:37;;;;;;;8.40;5.80;;;;;;;9.72;78.74;95974.03;5031230;28;20163;-60
2022/10/18 00:20:04;;;;;;;8.30;5.57;;;;;;;9.42;79.25;95963.16;5030635;28;20598;-61
2022/10/18 00:22:30;;;;;;;11.73;7.10;;;;;;;9.52;79.94;95946.47;5030567;28;20668;-60
2022/10/18 00:24:56;;;;;;;5.43;3.47;;;;;;;9.28;78.33;95984.28;5031060;28;20297;-61
2022/10/18 00:27:21;;;;;;;5.93;3.27;;;;;;;9.29;77.95;95974.97;5034776;28;20240;-59
2022/10/18 00:29:50;;;;;;;4.33;3.27;;;;;;;9.36;76.97;96001.59;5033967;28;20222;-59
2022/10/18 00:32:16;;;;;;;5.47;3.30;;;;;;;9.30;77.33;95974.84;5033992;28;20645;-60
2022/10/18 00:34:41;;;;;;;6.33;3.93;;;;;;;9.20;80.58;95915.41;5034616;28;20242;-59
2022/10/18 00:37:06;;;;;;;3.97;3.17;;;;;;;9.12;79.60;95939.59;5016135;28;20721;-59
2022/10/18 00:39:32;;;;;;;3.97;3.23;;;;;;;9.03;80.61;95927.47;5016155;28;20237;-61
2022/10/18 00:41:57;;;;;;;9.40;3.83;;;;;;;9.05;83.61;95873.19;5034439;28;20178;-60
2022/10/18 00:44:26;;;;;;;5.37;3.70;;;;;;;9.35;83.63;95882.41;5034233;28;20250;-60
2022/10/18 00:46:56;;;;;;;5.50;3.87;;;;;;;9.35;81.85;95926.38;5033532;28;20598;-59
2022/10/18 00:49:51;;;;;;;4.90;3.60;;;;;;;9.47;79.89;95953.56;5034652;28;20433;-60
2022/10/18 00:52:19;;;;;;;8.70;5.13;;;;;;;9.37;80.07;95955.03;5019225;28;20255;-60
2022/10/18 00:54:47;;;;;;;9.53;5.87;;;;;;;9.19;81.95;95902.81;5033591;28;20213;-60
2022/10/18 00:57:13;;;;;;;9.17;5.60;;;;;;;9.23;82.89;95911.88;5015954;28;20190;-59
2022/10/18 00:59:40;;;;;;;12.23;6.77;;;;;;;9.25;82.03;95908.31;5015507;28;20222;-59
2022/10/18 01:02:07;;;;;;;8.50;5.90;;;;;;;9.18;83.17;95901.19;5033153;28;20201;-60
2022/10/18 01:04:33;;;;;;;11.27;6.77;;;;;;;9.06;84.61;95871.47;5033515;28;20340;-61
2022/10/18 01:07:35;;;;;;;9.57;5.20;;;;;;;9.09;82.98;95909.34;5033327;28;20298;-60
2022/10/18 01:10:07;;;;;;;8.40;6.10;;;;;;;9.10;84.81;95877.97;5033262;28;20218;-58
2022/10/18 01:13:04;;;;;;;5.63;4.07;;;;;;;9.10;80.33;95956.63;5033405;28;20201;-60
2022/10/18 01:15:38;;;;;;;7.40;3.80;;;;;;;9.09;80.28;95960.06;5033266;28;20224;-58
2022/10/18 01:18:28;;;;;;;8.07;3.87;;;;;;;8.79;80.72;95926.31;5033126;28;20186;-59
2022/10/18 01:21:03;;;;;;;8.77;3.77;;;;;;;8.74;81.59;95928.31;5076646;22;20236;-59
2022/10/18 01:24:05;;;;;;;5.90;3.30;;;;;;;8.62;82.54;95896.88;5072819;28;20184;-59
2022/10/18 01:26:55;;;;;;;5.63;3.53;;;;;;;8.62;83.53;95886.75;5072839;28;20188;-60
2022/10/18 01:29:58;;;;;;;6.83;3.40;;;;;;;8.73;84.12;95892.00;5073482;28;20244;-59
2022/10/18 01:32:27;;;;;;;6.70;3.27;;;;;;;8.95;81.47;95939.75;5072650;28;20258;-62
2022/10/18 01:34:59;;;;;;;5.93;2.77;;;;;;;8.87;81.44;95931.75;5072956;28;20684;-60
2022/10/18 01:37:26;;;;;;;3.40;2.57;;;;;;;8.89;80.69;95947.69;5071265;28;20181;-59
2022/10/18 01:39:56;;;;;;;5.33;3.20;;;;;;;8.72;84.59;95876.88;5072983;28;20208;-61
2022/10/18 01:42:22;;;;;;;5.47;3.17;;;;;;;8.71;83.66;95892.97;5072829;28;20184;-60
2022/10/18 01:44:50;;;;;;;5.00;3.27;;;;;;;8.75;82.96;95904.56;5072494;28;20215;-59
2022/10/18 01:47:18;;;;;;;4.57;3.50;;;;;;;8.65;83.76;95894.16;5072417;28;20261;-58
2022/10/18 01:49:43;;;;;;;4.67;2.70;;;;;;;8.61;83.15;95891.88;5073060;28;20741;-61
2022/10/18 01:52:13;;;;;;;5.17;3.20;;;;;;;8.50;85.35;95871.41;5072417;28;20189;-59
2022/10/18 01:54:43;;;;;;;7.43;3.40;;;;;;;8.51;83.68;95893.28;5072546;28;20205;-61
2022/10/18 01:57:35;;;;;;;5.13;3.03;;;;;;;8.45;84.30;95885.16;5071110;28;20180;-59
2022/10/18 02:00:13;;;;;;;4.80;3.13;;;;;;;8.23;86.12;95856.84;5072646;28;20691;-60
2022/10/18 02:02:44;;;;;;;5.73;3.07;;;;;;;8.14;86.22;95846.41;5072330;28;20192;-60
2022/10/18 02:05:16;;;;;;;6.53;3.00;;;;;;;8.06;87.42;95849.34;5072011;28;20213;-60
2022/10/18 02:07:50;;;;;;;4.93;3.30;;;;;;;8.09;88.29;95835.72;5072130;28;20238;-60
2022/10/18 02:10:27;;;;;;;3.50;3.20;;;;;;;7.99;89.56;95825.28;5072616;28;20681;-61
2022/10/18 02:12:54;;;;;;;5.80;3.17;;;;;;;8.13;88.51;95844.78;5072082;28;20553;-60
2022/10/18 02:15:26;;;;;;;4.70;3.43;;;;;;;8.00;89.25;95831.97;5072443;28;20721;-58
2022/10/18 02:18:01;;;;;;;5.37;3.37;;;;;;;8.01;89.17;95836.16;5071998;28;20184;-59
2022/10/18 02:20:28;;;;;;;3.73;3.07;;;;;;;8.06;89.34;95843.50;5073161;28;20212;-61
2022/10/18 02:22:56;;;;;;;5.27;3.40;;;;;;;8.09;89.07;95850.91;5072230;28;20204;-61
2022/10/18 02:25:26;;;;;;;5.83;3.70;;;;;;;8.13;89.27;95860.78;5073137;28;20221;-62
2022/10/18 02:27:52;;;;;;;4.00;3.03;;;;;;;7.98;90.98;95830.44;5071334;28;20603;-60
2022/10/18 02:30:20;;;;;;;4.80;3.50;;;;;;;8.09;92.26;95823.88;5087705;28;20243;-60
2022/10/18 02:32:57;;;;;;;3.33;3.03;;;;;;;8.28;91.45;95842.22;5072266;28;20650;-59
2022/10/18 02:35:29;;;;;;;7.53;3.77;;;;;;;8.19;92.43;95830.06;5072694;28;20757;-60
2022/10/18 02:37:56;;;;;;;6.03;3.73;;;;;;;8.19;93.39;95834.28;5072637;28;20169;-59
2022/10/18 02:40:24;;;;;;;4.70;3.40;;;;;;;8.39;92.10;95862.69;5072579;28;20284;-61
2022/10/18 02:42:54;;;;;;;3.77;3.10;;;;;;;8.58;89.31;95897.13;5070520;28;20184;-58
2022/10/18 02:45:20;;;;;;;6.40;3.17;;;;;;;8.56;88.34;95909.91;5071795;28;20628;-61
2022/10/18 02:47:45;;;;;;;7.30;3.20;;;;;;;8.37;89.82;95879.72;5072241;28;20172;-61
2022/10/18 02:50:11;;;;;;;5.43;3.80;;;;;;;8.29;93.16;95851.47;5071451;28;20210;-61
2022/10/18 02:52:37;;;;;;;6.17;3.97;;;;;;;8.30;91.66;95863.22;5071485;28;20242;-61
2022/10/18 02:55:03;;;;;;;6.57;3.50;;;;;;;8.57;90.23;95900.56;5072215;28;20216;-60
2022/10/18 02:57:29;;;;;;;5.67;3.93;;;;;;;8.41;91.88;95868.50;5072478;28;20191;-60
2022/10/18 02:59:55;;;;;;;5.10;3.53;;;;;;;8.43;93.18;95861.63;5072179;28;20593;-61
2022/10/18 03:02:20;;;;;;;3.87;3.47;;;;;;;8.47;92.70;95869.84;5071513;28;20731;-60
2022/10/18 03:04:46;;;;;;;9.57;3.60;;;;;;;8.55;90.77;95895.56;5071768;28;20220;-58
2022/10/18 03:07:11;;;;;;;3.97;3.37;;;;;;;8.58;90.65;95889.53;5069828;28;20187;-59
2022/10/18 03:09:37;;;;;;;6.47;3.80;;;;;;;8.60;91.61;95872.50;5071244;28;20217;-59
2022/10/18 03:12:02;;;;;;;4.73;3.80;;;;;;;8.50;93.35;95861.28;5071804;28;20191;-58
2022/10/18 03:14:28;;;;;;;5.60;3.57;;;;;;;8.76;90.77;95896.91;5070119;28;20216;-60
2022/10/18 03:16:53;;;;;;;6.77;4.30;;;;;;;8.57;91.88;95875.22;5072157;28;20196;-61
2022/10/18 03:19:19;;;;;;;5.17;4.43;;;;;;;8.39;93.84;95856.81;5071962;28;20213;-61
2022/10/18 03:21:45;;;;;;;7.53;4.70;;;;;;;8.43;92.97;95858.25;5071743;28;20176;-60
2022/10/18 03:24:10;;;;;;;7.63;4.10;;;;;;;8.60;89.53;95910.53;5073557;28;20220;-60
2022/10/18 03:26:35;;;;;;;7.60;4.40;;;;;;;8.62;88.03;95906.19;5073395;28;20199;-61
2022/10/18 03:29:01;;;;;;;4.23;3.40;;;;;;;8.39;89.05;95885.50;5072829;28;20248;-62
2022/10/18 03:31:26;;;;;;;5.80;4.00;;;;;;;8.22;92.77;95849.34;5071969;28;20234;-60
2022/10/18 03:33:52;;;;;;;8.30;4.97;;;;;;;8.20;92.82;95851.94;5073388;28;20208;-60
2022/10/18 03:36:17;;;;;;;8.77;4.53;;;;;;;8.41;91.77;95871.03;5071629;28;20196;-61
2022/10/18 03:38:43;;;;;;;6.13;4.17;;;;;;;8.26;91.67;95882.00;5070975;28;20711;-59
2022/10/18 03:41:08;;;;;;;6.10;4.03;;;;;;;8.36;91.77;95879.81;5073592;28;20195;-61
2022/10/18 03:43:34;;;;;;;7.53;4.33;;;;;;;8.27;92.10;95875.22;5070898;28;20188;-62
2022/10/18 03:45:59;;;;;;;9.93;4.73;;;;;;;8.42;91.63;95885.31;5073974;28;20788;-61
2022/10/18 03:48:25;;;;;;;9.20;4.97;;;;;;;8.37;91.28;95883.94;5070502;28;20214;-61
2022/10/18 03:50:50;;;;;;;11.90;5.20;;;;;;;8.40;91.99;95894.72;5070814;28;20600;-61
2022/10/18 03:53:16;;;;;;;7.20;4.97;;;;;;;8.43;91.08;95894.56;5072225;28;20220;-59
2022/10/18 03:55:41;;;;;;;10.50;5.10;;;;;;;8.44;91.27;95896.19;5070952;28;20295;-61
2022/10/18 03:58:07;;;;;;;6.90;4.83;;;;;;;8.44;90.46;95906.31;5070429;28;20188;-60
2022/10/18 04:00:33;;;;;;;6.73;5.03;;;;;;;8.59;89.37;95922.38;5071041;28;20619;-62
2022/10/18 04:02:58;;;;;;;5.37;4.70;;;;;;;8.42;89.98;95907.31;5074739;28;20263;-59
2022/10/18 04:05:26;;;;;;;7.43;5.03;;;;;;;8.48;88.96;95930.59;5075612;28;20295;-60
2022/10/18 04:07:51;;;;;;;9.00;3.80;;;;;;;8.38;89.39;95916.78;5073976;28;20192;-63
2022/10/18 04:10:17;;;;;;;8.60;4.80;;;;;;;8.34;90.06;95904.41;5074091;28;20209;-61
2022/10/18 04:12:43;;;;;;;6.53;4.73;;;;;;;8.11;91.43;95882.03;5074640;28;20200;-61
2022/10/18 04:15:09;;;;;;;7.90;4.80;;;;;;;8.08;92.04;95872.09;5072941;28;20722;-61
2022/10/18 04:17:34;;;;;;;9.63;5.10;;;;;;;8.04;92.20;95873.94;5076068;28;20224;-59
2022/10/18 04:20:00;;;;;;;10.30;5.97;;;;;;;8.08;91.18;95892.34;5074840;28;20213;-60
2022/10/18 04:22:25;;;;;;;8.93;5.60;;;;;;;7.87;92.18;95876.59;5074132;28;20187;-58
2022/10/18 04:25:08;;;;;;;11.83;6.30;;;;;;;7.65;93.17;95866.00;5075459;28;20208;-63
2022/10/18 04:27:42;;;;;;;13.03;6.40;;;;;;;7.75;92.71;95869.69;5074210;28;20196;-62
2022/10/18 04:30:09;;;;;;;13.77;5.73;;;;;;;8.60;100.00;95898.69;5076324;28;20617;-61
2022/10/18 04:32:35;;;;;;;15.37;7.27;;;;;;;8.82;100.00;95896.53;5078508;28;20242;-61
2022/10/18 04:35:02;;;;;;;10.60;6.77;;;;;;;8.79;100.00;95999.84;5075655;28;20213;-62
2022/10/18 04:37:27;;;;;;;12.53;7.17;;;;;;;8.74;100.00;96033.06;5073509;28;20243;-62
2022/10/18 04:39:53;;;;;;;16.13;6.87;;;;;;;8.58;100.00;96008.66;5073638;28;20220;-62
2022/10/18 04:42:19;;;;;;;15.60;8.30;;;;;;;8.39;100.00;96002.06;5073565;28;20218;-61
2022/10/18 04:45:06;;;;;;;12.77;7.90;;;;;;;8.23;100.00;95980.13;5075121;28;20675;-62
2022/10/18 04:47:32;;;;;;;17.17;7.90;;;;;;;8.07;100.00;95970.03;5074782;28;20208;-62
2022/10/18 04:50:09;;;;;;;;;;;;;;;;;;;;;
2022/10/18 04:52:39;;;;;;;14.60;8.80;;;;;;;7.92;100.00;95949.78;5073649;28;20192;-60
2022/10/18 04:55:04;;;;;;;16.30;8.03;;;;;;;7.85;100.00;95951.00;5075496;28;20709;-61
2022/10/18 04:57:31;;;;;;;15.03;8.13;;;;;;;7.98;100.00;95962.91;5077443;28;20185;-61
2022/10/18 04:59:58;;;;;;;17.30;8.20;;;;;;;7.88;100.00;95943.25;5075071;28;20262;-58
2022/10/18 05:02:24;;;;;;;14.10;7.77;;;;;;;7.80;100.00;95922.59;5073295;28;20214;-60
2022/10/18 05:04:50;;;;;;;15.37;7.97;;;;;;;7.94;100.00;95892.28;5061832;22;20225;-62
2022/10/18 05:07:16;;;;;;;11.03;6.90;;;;;;;7.93;100.00;95934.50;5038055;28;20217;-62
2022/10/18 05:09:41;;;;;;;13.83;8.00;;;;;;;7.94;100.00;95938.66;5035030;28;20222;-60
2022/10/18 05:12:07;;;;;;;12.53;7.13;;;;;;;7.89;100.00;95937.28;5033330;28;20182;-61
2022/10/18 05:14:32;;;;;;;12.53;7.30;;;;;;;8.03;100.00;95960.97;5016932;28;20237;-61
2022/10/18 05:16:58;;;;;;;10.37;6.77;;;;;;;7.97;100.00;95935.97;5033179;28;20205;-65
2022/10/18 05:19:23;;;;;;;9.27;6.40;;;;;;;7.90;100.00;95909.34;5033553;28;20259;-59
2022/10/18 05:21:49;;;;;;;8.43;6.07;;;;;;;8.39;100.00;95877.91;5033729;28;20215;-61
2022/10/18 05:24:14;;;;;;;8.93;5.77;;;;;;;8.23;100.00;95937.91;5061977;22;20839;-60
2022/10/18 05:26:40;;;;;;;15.93;5.93;;;;;;;7.98;100.00;95932.50;5013248;28;20195;-62
2022/10/18 05:29:05;;;;;;;7.13;4.70;;;;;;;7.98;100.00;95962.09;5013209;28;20252;-61
2022/10/18 05:31:30;;;;;;;12.13;5.53;;;;;;;7.81;100.00;95945.28;5013088;28;20189;-61
2022/10/18 05:33:56;;;;;;;9.20;6.00;;;;;;;7.97;100.00;95960.47;5012726;28;20218;-61
2022/10/18 05:36:21;;;;;;;8.97;6.30;;;;;;;7.86;100.00;95953.44;5013042;28;20581;-62
2022/10/18 05:38:47;;;;;;;8.00;6.10;;;;;;;7.79;100.00;95948.78;5013081;28;20677;-62
2022/10/18 05:41:13;;;;;;;12.57;6.97;;;;;;;8.00;100.00;95966.16;5012496;28;20210;-62
2022/10/18 05:43:39;;;;;;;10.70;7.43;;;;;;;7.87;100.00;95944.13;5011693;28;20277;-58
2022/10/18 05:46:07;;;;;;;12.80;6.87;;;;;;;7.82;100.00;95935.97;5012954;28;20191;-60
2022/10/18 05:48:33;;;;;;;15.03;8.27;;;;;;;7.91;100.00;95945.59;5010215;28;20218;-60
2022/10/18 05:51:00;;;;;;;13.67;8.00;;;;;;;8.06;100.00;95977.72;5012623;28;20199;-60
2022/10/18 05:53:26;;;;;;;15.90;8.97;;;;;;;8.34;100.00;96000.69;5012499;28;20290;-59
2022/10/18 05:55:51;;;;;;;20.33;9.63;;;;;;;8.21;100.00;95970.09;5013203;28;20577;-61
2022/10/18 05:58:17;;;;;;;25.53;9.77;;;;;;;8.32;100.00;95972.88;5013048;28;20249;-59
2022/10/18 06:00:42;;;;;;;19.27;9.37;;;;;;;8.42;100.00;95993.47;5012519;28;20257;-59
2022/10/18 06:03:08;;;;;;;14.27;9.47;;;;;;;8.45;100.00;95991.59;5012572;28;20206;-60
2022/10/18 06:05:33;;;;;;;18.53;8.60;;;;;;;8.57;100.00;95996.84;5012973;28;20285;-61
2022/10/18 06:07:59;;;;;;;16.50;10.13;;;;;;;8.66;100.00;96001.44;5022286;23;20198;-60
2022/10/18 06:10:24;;;;;;;18.37;10.27;;;;;;;8.80;100.00;96006.56;5071832;28;20213;-61
2022/10/18 06:12:50;;;;;;;20.03;10.47;;;;;;;8.88;100.00;95999.34;5072131;28;20184;-61
2022/10/18 06:15:15;;;;;;;22.53;9.70;;;;;;;8.84;100.00;96020.69;5070517;28;20215;-61
2022/10/18 06:17:41;;;;;;;14.23;9.17;;;;;;;9.09;100.00;96087.69;5072006;28;20231;-62
2022/10/18 06:20:07;;;;;;;12.30;8.60;;;;;;;9.05;100.00;96065.94;5071913;28;20266;-61
2022/10/18 06:22:33;;;;;;;19.23;9.77;;;;;;;8.83;100.00;96009.72;5069743;28;20292;-58
2022/10/18 06:24:59;;;;;;;22.47;10.63;;;;;;;8.81;100.00;96000.56;5071649;28;20730;-59
2022/10/18 06:27:25;;;;;;;27.77;10.73;;;;;;;9.05;100.00;96060.88;5071600;28;20177;-58
2022/10/18 06:29:50;;;;;;;19.53;10.60;;;;;;;8.96;100.00;96025.91;5071366;28;20231;-61
2022/10/18 06:32:16;;;;;;;28.43;10.63;;;;;;;9.02;100.00;96032.34;5071738;28;20185;-61
2022/10/18 06:34:41;;;;;;;18.93;10.53;;;;;;;9.08;100.00;96032.81;5071355;28;20303;-60
2022/10/18 06:37:08;;;;;;;15.83;9.33;;;;;;;9.20;100.00;96064.28;5071601;28;20180;-60
2022/10/18 06:39:33;;;;;;;24.47;10.03;;;;;;;9.09;100.00;96047.13;5071348;28;20208;-60
2022/10/18 06:41:59;;;;;;;24.50;9.73;;;;;;;9.25;100.00;96065.63;5071971;28;20193;-62
2022/10/18 06:44:24;;;;;;;20.17;9.60;;;;;;;9.13;100.00;96035.09;5069960;28;20209;-60
2022/10/18 06:46:56;;;;;;;15.13;9.07;;;;;;;9.24;100.00;96036.13;5071687;28;20192;-62
2022/10/18 06:49:22;;;;;;;17.53;9.40;;;;;;;9.22;100.00;96026.94;5071183;28;20292;-59
2022/10/18 06:51:47;;;;;;;24.73;10.03;;;;;;;9.28;100.00;96022.34;5071683;28;20212;-64
2022/10/18 06:54:13;;;;;;;16.30;10.40;;;;;;;9.48;100.00;96005.94;5071484;28;20201;-61
2022/10/18 06:56:39;;;;;;;17.33;10.00;;;;;;;9.54;100.00;96020.81;5071200;28;20185;-61
2022/10/18 06:59:04;;;;;;;17.77;10.43;;;;;;;9.63;100.00;96007.59;5071238;28;20626;-61
2022/10/18 07:01:30;;;;;;;22.57;10.60;;;;;;;9.75;100.00;96051.75;5071417;28;20238;-60
2022/10/18 07:03:56;;;;;;;17.90;10.47;;;;;;;9.87;100.00;96056.09;5071105;28;20205;-61
2022/10/18 07:06:22;;;;;;;16.43;9.50;;;;;;;10.03;100.00;96051.75;5087193;28;20291;-59
2022/10/18 07:08:49;;;;;;;13.03;8.60;;;;;;;10.32;99.52;96088.13;5070885;28;20212;-58
2022/10/18 07:11:19;;;;;;;19.50;9.23;;;;;;;10.34;99.59;96076.16;5071407;28;20191;-61
2022/10/18 07:13:44;;;;;;;21.13;9.53;;;;;;;10.44;99.45;96089.94;5069633;28;20196;-61
2022/10/18 07:16:12;;;;;;;14.20;9.23;;;;;;;10.55;98.38;96105.34;5086699;28;20181;-62
2022/10/18 07:18:40;;;;;;;12.27;8.43;;;;;;;10.53;99.24;96082.56;5071142;28;20208;-61
2022/10/18 07:21:09;;;;;;;19.13;9.80;;;;;;;10.62;98.56;96092.16;5071047;28;20188;-62
2022/10/18 07:23:37;;;;;;;21.40;9.87;;;;;;;10.78;97.31;96117.47;5070996;28;20185;-61
2022/10/18 07:26:15;;;;;;;21.67;10.70;;;;;;;10.75;98.90;96066.75;5071101;28;20539;-62
2022/10/18 07:28:42;;;;;;;18.63;11.77;;;;;;;10.53;96.91;96118.16;5070832;28;20215;-62
2022/10/18 07:31:09;;;;;;;24.20;10.40;;;;;;;10.72;97.43;96100.88;5071348;28;20635;-61
2022/10/18 07:33:36;;;;;;;15.73;8.80;;;;;;;10.56;96.66;96112.88;5070849;28;20292;-60
2022/10/18 07:36:05;;;;;;;15.93;8.23;;;;;;;10.72;96.83;96103.41;5070688;28;20249;-61
2022/10/18 07:38:30;;;;;;;15.33;8.00;;;;;;;10.79;97.06;96099.56;5070476;28;20212;-60
2022/10/18 07:40:57;;;;;;;13.80;7.67;;;;;;;10.87;96.82;96086.34;5070782;28;20651;-59
2022/10/18 07:43:23;;;;;;;13.83;8.57;;;;;;;10.86;97.50;96079.63;5069534;28;20685;-62
2022/10/18 07:45:56;;;;;;;13.73;7.37;;;;;;;10.89;97.68;96069.25;5069100;28;20201;-62
2022/10/18 07:48:22;;;;;;;16.90;8.37;;;;;;;11.12;97.36;96085.63;5070646;28;20212;-57
2022/10/18 07:50:48;;;;;;;16.07;8.20;;;;;;;11.41;96.12;96099.84;5070824;28;20204;-60
2022/10/18 07:53:14;;;;;;;15.33;8.00;;;;;;;11.55;96.16;96099.75;5070642;28;20184;-59
2022/10/18 07:55:39;;;;;;;10.97;8.13;;;;;;;11.61;94.51;96130.75;5070924;28;20204;-60
2022/10/18 07:58:05;;;;;;;16.43;7.47;;;;;;;11.90;93.99;96133.94;5069206;28;20189;-61
2022/10/18 08:00:30;;;;;;;11.97;7.30;;;;;;;12.09;92.49;96164.13;5069211;28;20208;-61
2022/10/18 08:02:57;;;;;;;11.47;7.17;;;;;;;12.33;92.78;96147.19;5070750;28;20616;-61
2022/10/18 08:05:22;;;;;;;17.77;7.63;;;;;;;12.56;90.65;96195.72;5070472;28;20668;-59
2022/10/18 08:07:48;;;;;;;12.43;7.23;;;;;;;12.71;92.01;96154.78;5070324;28;20196;-59
2022/10/18 08:10:13;;;;;;;13.63;7.73;;;;;;;13.02;89.63;96185.75;5068917;28;20217;-58
2022/10/18 08:12:39;;;;;;;19.23;7.68;;;;;;;13.28;87.72;96224.81;5069141;28;20193;-59
2022/10/18 08:15:05;;;;;;;14.10;8.00;;;;;;;13.56;86.87;96211.69;5070379;28;20209;-59
2022/10/18 08:17:30;;;;;;;13.33;7.37;;;;;;;13.59;87.40;96185.13;5070255;28;20571;-59
2022/10/18 08:19:55;;;;;;;13.93;7.97;;;;;;;13.84;85.31;96200.31;5069959;28;20211;-57
2022/10/18 08:22:21;;;;;;;12.70;6.90;;;;;;;14.10;81.58;96197.47;5070416;28;20271;-59
2022/10/18 08:24:47;;;;;;;26.20;7.87;;;;;;;14.17;74.29;96187.59;5070102;28;20659;-59
2022/10/18 08:27:13;;;;;;;13.63;7.23;;;;;;;14.70;69.38;96247.59;5085714;28;20188;-58
2022/10/18 08:29:38;;;;;;;12.45;6.72;;;;;;;14.99;68.18;96246.19;5070108;28;20266;-61
2022/10/18 08:32:04;;;;;;;10.13;6.60;;;;;;;15.34;67.31;96235.78;5070110;28;20207;-61
2022/10/18 08:34:29;;;;;;;11.60;6.97;;;;;;;15.70;66.40;96248.28;5069850;28;20706;-61
2022/10/18 08:36:55;;;;;;;9.32;6.85;;;;;;;15.47;64.33;96280.06;5068824;28;20233;-61
2022/10/18 08:39:20;;;;;;;9.48;6.55;;;;;;;15.82;63.62;96288.34;5069766;28;20274;-62
2022/10/18 08:41:56;;;;;;;21.48;7.18;;;;;;;16.37;64.18;96256.50;5070083;28;20254;-62
2022/10/18 08:44:30;;;;;;;24.40;7.10;;;;;;;16.63;62.87;96286.84;5069885;28;20287;-58
2022/10/18 08:47:13;;;;;;;12.73;6.50;;;;;;;16.87;63.59;96242.09;5071606;28;20234;-58
2022/10/18 08:49:44;;;;;;;10.57;6.45;;;;;;;17.21;62.56;96256.28;5073210;28;20208;-58
2022/10/18 08:52:24;;;;;;;10.68;7.13;;;;;;;17.60;60.33;96312.84;5073194;28;20193;-59
2022/10/18 08:55:00;;;;;;;12.38;7.32;;;;;;;17.92;58.27;96346.06;5073266;28;20626;-58
2022/10/18 08:57:27;;;;;;;11.45;6.40;;;;;;;18.18;57.36;96331.72;5073277;28;20189;-58
2022/10/18 08:59:52;;;;;;;9.55;6.15;;;;;;;18.49;56.64;96352.22;5073145;28;20232;-58
2022/10/18 09:02:39;;;;;;;17.75;6.85;;;;;;;18.82;56.14;96344.06;5073137;28;20232;-59
2022/10/18 09:05:23;;;;;;;10.95;6.55;;;;;;;19.07;55.52;96326.22;5073068;28;20209;-61
2022/10/18 09:08:02;;;;;;;11.07;5.95;;;;;;;19.20;53.80;96355.09;5072834;28;20208;-62
2022/10/18 09:10:45;;;;;;;8.82;5.55;;;;;;;19.31;53.72;96355.88;5072970;28;20210;-62
2022/10/18 09:13:45;;;;;;;9.40;5.93;;;;;;;19.64;52.56;96389.72;5072982;28;20184;-62
2022/10/18 09:16:15;;;;;;;16.10;6.72;;;;;;;19.92;51.76;96395.69;5072663;28;20331;-62
2022/10/18 09:18:50;;;;;;;10.05;5.30;;;;;;;20.14;49.81;96444.34;5072893;28;20577;-59
2022/10/18 09:21:22;;;;;;;11.32;5.75;;;;;;;20.23;50.35;96407.38;5073185;28;20324;-60
2022/10/18 09:24:00;;;;;;;13.55;5.70;;;;;;;20.53;49.45;96427.69;5072731;28;20211;-60
2022/10/18 09:26:26;;;;;;;9.85;4.80;;;;;;;20.67;48.54;96441.88;5073003;28;20185;-59
2022/10/18 09:29:12;;;;;;;10.27;5.30;;;;;;;20.95;48.08;96445.19;5072395;28;20725;-61
2022/10/18 09:31:47;;;;;;;10.48;5.00;;;;;;;21.06;47.26;96453.56;5073076;28;20611;-62
2022/10/18 09:34:31;;;;;;;6.30;4.72;;;;;;;21.49;46.49;96471.66;5072477;28;20774;-62
2022/10/18 09:36:57;;;;;;;11.57;5.15;;;;;;;21.67;45.90;96466.44;5072451;28;20197;-61
2022/10/18 09:39:37;;;;;;;10.93;5.18;;;;;;;21.91;45.86;96409.59;5071201;28;20201;-61
2022/10/18 09:42:40;;;;;;;8.68;5.15;;;;;;;22.25;46.12;96396.59;5072809;28;20192;-62
2022/10/18 09:45:42;;;;;;;9.15;4.35;;;;;;;22.55;43.72;96414.13;5072401;28;20311;-62
2022/10/18 09:48:14;;;;;;;6.38;4.30;;;;;;;22.86;42.78;96391.00;5064072;28;20201;-62
2022/10/18 09:50:47;;;;;;;7.97;5.18;;;;;;;22.99;42.36;96376.56;5070964;28;20702;-63
2022/10/18 09:53:36;;;;;;;7.57;4.20;;;;;;;22.88;41.27;96376.91;5072446;28;20181;-62
2022/10/18 09:56:04;;;;;;;10.40;4.10;;;;;;;23.06;40.91;96387.09;5071052;28;20270;-61
2022/10/18 09:58:42;;;;;;;6.97;4.28;;;;;;;23.25;39.79;96392.75;5070928;28;20181;-62
2022/10/18 10:01:10;;;;;;;11.75;4.82;;;;;;;23.49;40.00;96354.75;5072281;28;20188;-62
2022/10/18 10:03:35;;;;;;;10.13;4.10;;;;;;;23.50;37.46;96421.28;5072018;28;20191;-59
2022/10/18 10:06:24;;;;;;;5.82;3.75;;;;;;;23.67;37.53;96402.91;5072304;28;20283;-60
2022/10/18 10:08:56;;;;;;;6.03;3.38;;;;;;;23.83;37.69;96383.84;5071868;28;20216;-61
2022/10/18 10:11:29;;;;;;;6.70;3.70;;;;;;;24.09;38.21;96358.41;5072269;28;20275;-61
2022/10/18 10:14:22;;;;;;;10.25;4.28;;;;;;;24.34;36.60;96409.28;5071826;28;20211;-61
2022/10/18 10:17:19;;;;;;;4.28;3.25;;;;;;;24.29;34.82;96444.59;5072081;28;20299;-61
2022/10/18 10:20:13;;;;;;;7.70;3.25;;;;;;;24.59;35.47;96376.94;5071462;28;20212;-60
2022/10/18 10:22:40;;;;;;;5.80;3.20;;;;;;;24.60;33.87;96448.00;5070457;28;20242;-61
2022/10/18 10:25:16;;;;;;;5.20;3.30;;;;;;;24.78;33.65;96431.16;5071923;28;20223;-61
2022/10/18 10:27:44;;;;;;;4.43;2.70;;;;;;;24.61;33.15;96421.81;5071907;28;20187;-59
2022/10/18 10:30:35;;;;;;;4.38;2.85;;;;;;;24.85;32.66;96442.47;5071667;28;20216;-58
2022/10/18 10:33:02;;;;;;;4.03;2.92;;;;;;;24.95;33.24;96395.38;5070393;28;20219;-58
2022/10/18 10:35:39;;;;;;;6.55;2.85;;;;;;;24.58;31.48;96455.16;5071817;28;20201;-61
2022/10/18 10:38:05;;;;;;;3.10;2.53;;;;;;;24.55;31.60;96450.28;5071773;28;20194;-62
2022/10/18 10:40:45;;;;;;;6.78;2.80;;;;;;;24.58;32.00;96403.94;5086125;22;20267;-59
2022/10/18 10:43:26;;;;;;;3.67;2.70;;;;;;;24.50;31.80;96416.19;5091703;28;20199;-61
2022/10/18 10:46:17;;;;;;;4.47;2.85;;;;;;;24.71;32.36;96357.34;5071253;28;20215;-61
2022/10/18 10:48:50;;;;;;;3.15;2.60;;;;;;;24.95;32.54;96351.13;5071186;28;20224;-60
2022/10/18 10:51:33;;;;;;;3.60;2.63;;;;;;;24.96;30.75;96415.22;5071364;28;20181;-60
2022/10/18 10:54:07;;;;;;;4.05;1.98;;;;;;;24.51;29.89;96371.78;5086855;28;20290;-62
2022/10/18 10:56:36;;;;;;;4.55;2.22;;;;;;;24.78;30.15;96332.28;5070014;28;20192;-61
2022/10/18 10:59:23;;;;;;;2.97;2.30;;;;;;;24.68;29.00;96354.28;5071437;28;20209;-61
2022/10/18 11:01:55;;;;;;;2.50;2.25;;;;;;;24.71;29.22;96336.53;5071389;28;20240;-61
2022/10/18 11:04:27;;;;;;;2.85;2.20;;;;;;;23.27;31.63;96245.44;5071474;28;20200;-61
2022/10/18 11:07:05;;;;;;;4.25;2.00;;;;;;;23.21;31.06;96248.69;5071113;28;20196;-60
2022/10/18 11:09:37;;;;;;;2.85;2.15;;;;;;;23.77;30.91;96262.44;5070923;28;20636;-61
2022/10/18 11:12:22;;;;;;;5.28;2.55;;;;;;;23.73;30.24;96261.97;5042551;22;20233;-60
2022/10/18 11:15:27;;;;;;;4.60;2.22;;;;;;;24.04;30.25;96272.34;5031270;28;20206;-61
2022/10/18 11:17:53;;;;;;;2.22;2.03;;;;;;;23.81;29.46;96295.69;5020524;28;20263;-61
2022/10/18 11:20:24;;;;;;;3.30;1.92;;;;;;;24.07;29.16;96279.81;5031205;28;20218;-60
2022/10/18 11:22:49;;;;;;;3.15;2.00;;;;;;;24.34;29.63;96262.88;5031103;28;20193;-60
2022/10/18 11:25:15;;;;;;;2.72;1.98;;;;;;;24.33;28.02;96321.88;5031013;28;20598;-61
2022/10/18 11:27:45;;;;;;;3.13;1.88;;;;;;;24.52;27.33;96344.00;5013242;28;20664;-60
2022/10/18 11:30:36;;;;;;;5.35;1.95;;;;;;;24.44;27.42;96318.06;5030811;28;20216;-59
2022/10/18 11:33:30;;;;;;;2.28;2.08;;;;;;;24.71;26.83;96310.50;5030777;28;20190;-61
2022/10/18 11:36:37;;;;;;;1.55;1.42;;;;;;;24.61;27.03;96286.53;5030963;28;20243;-60
2022/10/18 11:39:20;;;;;;;2.08;1.60;;;;;;;23.99;26.13;96311.81;5013661;28;20225;-59
2022/10/18 11:42:14;;;;;;;2.15;1.90;;;;;;;24.15;26.36;96298.75;5031064;28;20196;-59
2022/10/18 11:44:56;;;;;;;2.38;1.88;;;;;;;24.04;27.09;96238.56;5030768;28;20213;-61
2022/10/18 11:47:38;;;;;;;2.85;1.70;;;;;;;24.26;25.68;96294.94;5030815;28;20194;-61
2022/10/18 11:50:13;;;;;;;2.05;1.13;;;;;;;24.07;24.44;96339.59;5030647;28;20285;-61